Time;durP1;ratioP1;P1;durP2;ratioP2;P2;SDS_P1;SDS_P2;PMS_P1;PMS_P2;Temp;Humidity;BMP_temperature;BMP_pressure;BME280_temperature;BME280_humidity;BME280_pressure;Samples;Min_cycle;Max_cycle;Signal;HPM_P1;HPM_P2
2022/04/18 06:19:05;;;;;;;5.43;2.13;;;13.30;50.80;;;;;;5005456;23;20055;-87
2022/04/18 06:21:31;;;;;;;3.63;2.38;;;13.30;50.10;;;;;;4959914;28;20035;-88
2022/04/18 06:23:57;;;;;;;3.60;2.50;;;13.30;50.20;;;;;;4965692;28;20042;-87
2022/04/18 06:26:22;;;;;;;4.45;2.22;;;13.40;50.60;;;;;;4976514;28;20086;-94
2022/04/18 06:28:48;;;;;;;3.58;2.40;;;13.50;50.40;;;;;;4961297;28;20531;-85
2022/04/18 06:31:14;;;;;;;4.43;2.20;;;13.50;49.80;;;;;;4977280;28;20498;-94
2022/04/18 06:33:39;;;;;;;2.80;2.25;;;13.60;48.80;;;;;;4976716;28;20066;-90
2022/04/18 06:36:05;;;;;;;7.93;2.50;;;13.60;48.30;;;;;;4966964;28;20046;-96
2022/04/18 06:38:31;;;;;;;2.63;2.10;;;13.60;48.60;;;;;;4966063;28;20398;-94
2022/04/18 06:41:01;;;;;;;3.00;2.10;;;13.70;48.80;;;;;;4959228;28;20494;-92
2022/04/18 06:43:27;;;;;;;;;;;13.80;48.60;;;;;;4957843;28;20052;-92
2022/04/18 06:45:52;;;;;;;2.78;2.00;;;13.80;47.80;;;;;;4962126;28;20329;-91
2022/04/18 06:48:18;;;;;;;2.92;1.70;;;13.90;47.30;;;;;;4977070;28;20531;-90
2022/04/18 06:50:45;;;;;;;4.22;2.33;;;13.90;46.50;;;;;;4959222;28;20489;-80
2022/04/18 06:53:11;;;;;;;2.17;1.90;;;13.90;46.20;;;;;;4974606;28;20034;-86
2022/04/18 06:58:21;;;;;;;1.95;1.75;;;14.00;45.20;;;;;;4965119;28;20082;-85
2022/04/18 07:00:47;;;;;;;3.58;2.05;;;14.00;45.00;;;;;;4952500;28;20059;-85
2022/04/18 07:03:13;;;;;;;3.08;1.90;;;14.10;44.80;;;;;;4968803;28;20034;-85
2022/04/18 07:05:56;;;;;;;2.15;1.77;;;14.10;41.30;;;;;;4966370;28;20046;-86
2022/04/18 07:08:24;;;;;;;3.00;1.92;;;14.10;43.10;;;;;;4961537;28;20046;-86
2022/04/18 07:10:50;;;;;;;2.15;1.52;;;14.10;42.50;;;;;;4971039;28;20043;-86
2022/04/18 07:41:32;;;;;;;2.75;1.83;;;14.80;41.00;;;;;;4971849;28;20065;-85
2022/04/18 07:44:27;;;;;;;3.60;1.80;;;14.90;41.30;;;;;;4955591;28;20101;-86
2022/04/18 07:47:52;;;;;;;3.13;1.88;;;14.90;41.20;;;;;;4944621;29;20102;-85
2022/04/18 07:51:31;;;;;;;2.90;1.60;;;15.00;41.30;;;;;;4952290;28;20368;-85
2022/04/18 07:54:02;;;;;;;2.63;1.67;;;15.10;41.10;;;;;;4980190;28;20034;-84
2022/04/18 07:56:34;;;;;;;2.03;1.60;;;15.30;39.80;;;;;;4922147;28;20137;-84
2022/04/18 08:03:06;;;;;;;2.92;2.10;;;15.40;39.90;;;;;;4969197;28;20049;-85
2022/04/18 08:05:33;;;;;;;3.30;1.98;;;15.50;40.70;;;;;;4960993;28;20035;-84
2022/04/18 08:07:59;;;;;;;3.30;2.20;;;15.60;41.10;;;;;;4970093;28;20099;-84
2022/04/18 08:10:29;;;;;;;1.98;1.55;;;15.70;40.10;;;;;;4977179;28;20026;-84
2022/04/18 08:13:03;;;;;;;2.75;2.00;;;15.80;40.50;;;;;;4980327;28;20081;-84
2022/04/18 08:15:34;;;;;;;2.58;1.98;;;15.80;38.60;;;;;;4939712;29;20091;-84
2022/04/18 08:18:01;;;;;;;2.53;1.52;;;15.80;40.00;;;;;;4960747;28;20050;-84
2022/04/18 08:20:40;;;;;;;2.95;1.92;;;15.80;40.30;;;;;;4978463;28;20030;-82
2022/04/18 08:23:12;;;;;;;4.75;2.10;;;15.90;39.90;;;;;;4956849;28;20047;-84
2022/04/18 08:28:29;;;;;;;2.35;1.92;;;16.00;39.90;;;;;;4979360;28;20077;-84
2022/04/18 08:30:58;;;;;;;3.72;2.38;;;16.10;39.20;;;;;;4952214;29;20036;-84
2022/04/18 08:33:26;;;;;;;4.47;2.05;;;16.20;40.20;;;;;;4938945;29;20127;-88
2022/04/18 08:43:04;;;;;;;2.97;1.88;;;16.50;37.70;;;;;;4912716;29;20047;-88
2022/04/18 08:46:27;;;;;;;2.53;1.70;;;16.50;39.20;;;;;;4900856;29;20068;-88
2022/04/18 08:52:46;;;;;;;2.88;1.75;;;16.80;38.60;;;;;;4916671;29;20035;-84
2022/04/18 08:58:36;;;;;;;4.35;2.20;;;17.10;37.70;;;;;;4922814;29;20058;-85
2022/04/18 09:14:12;;;;;;;3.35;2.22;;;17.50;36.70;;;;;;4920316;29;20051;-84
2022/04/18 09:48:22;;;;;;;3.13;2.20;;;18.50;36.60;;;;;;4957281;28;20467;-86
2022/04/18 09:51:09;;;;;;;5.90;2.17;;;18.60;36.00;;;;;;4946276;29;20106;-86
2022/04/18 10:17:48;;;;;;;3.20;2.05;;;19.80;34.10;;;;;;4891229;29;20114;-87
2022/04/18 10:28:08;;;;;;;3.47;2.25;;;20.20;35.10;;;;;;4921798;29;20118;-83
2022/04/18 10:31:14;;;;;;;2.67;1.98;;;20.30;34.20;;;;;;4946923;29;20040;-87
2022/04/18 10:33:52;;;;;;;4.05;2.10;;;20.40;35.20;;;;;;4950950;28;20066;-85
2022/04/18 10:37:03;;;;;;;2.67;2.10;;;20.60;35.10;;;;;;4940133;29;20102;-86
2022/04/18 10:44:02;;;;;;;4.25;2.13;;;20.80;33.40;;;;;;4966776;28;20054;-91
2022/04/18 10:51:12;;;;;;;;;;;;;;;;;;;;;
2022/04/18 10:54:44;;;;;;;3.38;1.88;;;21.10;33.80;;;;;;4948130;29;20082;-87
2022/04/18 10:57:16;;;;;;;3.88;2.10;;;21.30;34.00;;;;;;4959871;29;20040;-88
2022/04/18 11:00:32;;;;;;;3.72;1.90;;;21.30;32.10;;;;;;4960333;28;20121;-90
2022/04/18 11:03:02;;;;;;;2.65;1.70;;;21.40;32.90;;;;;;4943530;29;20039;-91
2022/04/18 11:09:00;;;;;;;4.70;2.30;;;21.60;33.20;;;;;;4956571;29;20046;-89
2022/04/18 11:11:53;;;;;;;3.13;1.98;;;21.70;32.50;;;;;;4947184;29;20280;-89
2022/04/18 11:14:26;;;;;;;2.75;1.50;;;21.80;32.20;;;;;;4945615;29;20054;-87
2022/04/18 11:17:26;;;;;;;2.33;1.98;;;21.90;32.40;;;;;;4943426;29;20073;-88
2022/04/18 11:20:32;;;;;;;3.93;1.87;;;22.10;30.40;;;;;;4948885;29;20067;-87
2022/04/18 11:23:44;;;;;;;4.35;2.13;;;22.10;32.00;;;;;;4937363;29;20043;-86
2022/04/18 11:26:12;;;;;;;2.50;1.88;;;22.30;30.10;;;;;;4945278;29;20039;-89
2022/04/18 11:28:56;;;;;;;3.60;2.00;;;22.40;32.30;;;;;;4965330;28;20449;-85
2022/04/18 11:34:43;;;;;;;3.75;1.77;;;23.20;32.50;;;;;;4949185;28;20042;-93
2022/04/18 11:37:58;;;;;;;2.40;1.77;;;24.10;31.70;;;;;;4949007;29;20503;-91
2022/04/18 11:41:00;;;;;;;3.50;2.28;;;25.00;31.20;;;;;;4940906;29;20054;-93
2022/04/18 11:43:37;;;;;;;3.55;2.28;;;26.00;29.60;;;;;;4913189;29;20548;-92
2022/04/18 12:10:49;;;;;;;4.72;2.10;;;28.20;27.10;;;;;;4962729;28;20066;-90
2022/04/18 12:17:33;;;;;;;4.00;2.38;;;27.60;26.80;;;;;;4961242;28;20046;-87
2022/04/18 12:20:30;;;;;;;3.20;2.17;;;27.10;27.20;;;;;;4894286;29;20173;-91
2022/04/18 12:29:44;;;;;;;4.03;2.08;;;27.00;26.90;;;;;;4896434;29;20047;-93
2022/04/18 12:33:44;;;;;;;3.00;2.05;;;27.10;27.60;;;;;;4912022;29;20043;-92
2022/04/18 12:36:35;;;;;;;3.45;2.22;;;27.30;26.80;;;;;;4903306;29;20032;-92
2022/04/18 12:39:15;;;;;;;4.03;2.03;;;27.70;27.60;;;;;;4892260;29;20463;-94
2022/04/18 12:41:47;;;;;;;3.17;2.33;;;28.00;27.30;;;;;;4910105;29;20519;-91
2022/04/18 12:44:24;;;;;;;3.20;2.08;;;28.20;27.00;;;;;;4886160;29;20062;-88
2022/04/18 12:47:16;;;;;;;2.65;2.33;;;28.50;26.80;;;;;;4886057;29;20037;-89
2022/04/18 12:50:21;;;;;;;;;;;;;;;;;;;;;
2022/04/18 12:53:17;;;;;;;;;;;;;;;;;;;;;
2022/04/18 12:56:23;;;;;;;4.65;2.22;;;29.00;25.30;;;;;;4936832;29;20122;-85
2022/04/18 14:36:44;;;;;;;2.83;2.25;;;22.30;29.30;;;;;;4939663;28;20054;-82
2022/04/18 14:46:40;;;;;;;3.35;1.67;;;21.60;28.90;;;;;;4949905;29;20767;-82
2022/04/18 14:59:39;;;;;;;3.97;1.70;;;21.20;28.90;;;;;;4962925;28;20515;-88
2022/04/18 17:09:04;;;;;;;;;;;;;;;;;;;;;
2022/04/18 17:15:19;;;;;;;1.33;0.80;;;19.50;27.20;;;;;;4969783;28;20042;-87
2022/04/18 18:36:36;;;;;;;1.92;1.27;;;18.20;29.10;;;;;;4953139;29;20042;-87
2022/04/18 18:39:39;;;;;;;1.77;0.90;;;18.20;29.50;;;;;;4942522;29;20038;-86
2022/04/18 18:43:09;;;;;;;;;;;;;;;;;;;;;
2022/04/18 18:46:30;;;;;;;1.95;1.10;;;18.20;29.60;;;;;;4911036;29;20127;-86
2022/04/18 18:53:28;;;;;;;1.88;1.23;;;18.00;32.00;;;;;;4904327;29;20039;-85
2022/04/18 19:04:06;;;;;;;2.72;0.98;;;17.90;32.20;;;;;;4837425;29;20050;-81
2022/04/18 19:07:25;;;;;;;1.67;1.08;;;17.90;32.40;;;;;;4806623;29;20095;-81
2022/04/18 19:10:37;;;;;;;1.15;1.00;;;17.90;32.70;;;;;;4797972;29;20059;-81
2022/04/18 19:14:07;;;;;;;1.98;1.23;;;17.80;32.90;;;;;;4820114;29;20042;-80
2022/04/18 19:37:03;;;;;;;;;;;;;;;;;;;;;
2022/04/18 20:14:44;;;;;;;1.80;1.40;;;16.90;46.30;;;;;;4778014;30;20081;-80
2022/04/18 20:17:11;;;;;;;3.55;1.80;;;16.80;47.00;;;;;;4758417;30;20397;-79
2022/04/18 20:19:37;;;;;;;2.25;1.38;;;16.70;45.40;;;;;;4784209;30;20039;-80
2022/04/18 20:22:07;;;;;;;2.22;1.52;;;16.70;46.80;;;;;;4892377;29;20131;-87
2022/04/18 20:24:37;;;;;;;3.15;1.60;;;16.70;46.20;;;;;;4897841;29;20076;-80
2022/04/18 20:27:02;;;;;;;2.92;1.60;;;16.70;47.10;;;;;;4926629;29;20049;-88
2022/04/18 20:29:28;;;;;;;2.53;1.50;;;16.70;49.00;;;;;;4897061;29;20051;-80
2022/04/18 20:31:55;;;;;;;2.13;1.42;;;16.60;48.50;;;;;;4897559;29;20104;-81
2022/04/18 20:34:22;;;;;;;1.88;1.45;;;16.60;48.40;;;;;;4892938;29;20488;-83
2022/04/18 20:36:48;;;;;;;2.47;1.77;;;16.60;48.90;;;;;;4898735;29;20045;-84
2022/04/18 20:39:14;;;;;;;4.28;2.72;;;16.60;51.20;;;;;;4937144;29;20039;-82
2022/04/18 20:41:45;;;;;;;2.40;1.63;;;16.20;51.70;;;;;;4949105;23;20131;-81
2022/04/18 20:44:11;;;;;;;4.07;2.38;;;16.20;51.30;;;;;;4894484;29;20064;-79
2022/04/18 20:46:37;;;;;;;3.55;1.55;;;16.00;51.30;;;;;;4916497;29;20036;-79
2022/04/18 20:49:03;;;;;;;1.73;1.30;;;16.00;49.80;;;;;;4897747;29;20413;-78
2022/04/18 20:51:28;;;;;;;3.13;2.10;;;16.10;49.60;;;;;;4901789;29;20032;-84
2022/04/18 20:59:27;;;;;;;2.30;1.60;;;16.10;47.60;;;;;;4914300;29;20042;-77
2022/04/18 21:01:56;;;;;;;4.35;1.27;;;16.00;47.00;;;;;;4916224;29;20040;-78
2022/04/18 21:04:22;;;;;;;2.03;1.27;;;15.90;46.50;;;;;;4894235;29;20036;-78
2022/04/18 21:06:47;;;;;;;3.35;1.67;;;15.90;45.80;;;;;;4916179;29;20507;-79
2022/04/18 21:09:14;;;;;;;1.70;1.30;;;15.90;44.80;;;;;;4914470;29;20116;-78
2022/04/18 21:11:40;;;;;;;2.28;1.40;;;15.90;44.80;;;;;;4915756;29;20039;-79
2022/04/18 21:14:07;;;;;;;2.10;1.42;;;16.00;44.80;;;;;;4915943;29;20036;-79
2022/04/18 21:16:34;;;;;;;2.08;1.35;;;16.00;44.50;;;;;;4915646;29;20036;-79
2022/04/18 21:19:00;;;;;;;3.10;1.80;;;16.00;43.90;;;;;;4895351;29;20033;-78
2022/04/18 21:21:27;;;;;;;2.25;1.10;;;16.00;43.00;;;;;;4911068;29;20142;-79
2022/04/18 21:23:53;;;;;;;2.78;1.65;;;15.70;43.10;;;;;;4910460;29;20111;-78
2022/04/18 21:26:20;;;;;;;2.83;1.27;;;15.80;42.90;;;;;;4900163;29;20040;-84
2022/04/18 21:28:45;;;;;;;1.20;1.10;;;15.80;43.00;;;;;;4916983;29;20445;-83
2022/04/18 21:31:17;;;;;;;8.48;1.50;;;15.90;43.30;;;;;;4898961;29;20139;-83
2022/04/18 21:33:43;;;;;;;2.70;1.40;;;15.90;43.60;;;;;;4902683;29;20123;-83
2022/04/18 21:36:10;;;;;;;2.15;1.95;;;15.80;44.00;;;;;;4921731;29;20048;-82
2022/04/18 21:38:36;;;;;;;3.22;1.83;;;15.60;44.70;;;;;;4921183;29;20500;-83
2022/04/18 21:41:03;;;;;;;3.42;1.40;;;15.50;45.20;;;;;;4920834;29;20036;-82
2022/04/18 21:43:31;;;;;;;2.38;1.58;;;15.40;44.80;;;;;;4933263;29;20050;-84
2022/04/18 21:45:57;;;;;;;2.72;1.60;;;15.30;45.20;;;;;;4909465;29;20078;-84
2022/04/18 21:48:28;;;;;;;1.90;1.30;;;15.30;45.60;;;;;;4919526;29;20126;-78
2022/04/18 21:50:54;;;;;;;1.33;1.20;;;15.40;44.80;;;;;;4932357;29;20372;-78
2022/04/18 21:53:22;;;;;;;2.45;1.20;;;15.40;44.90;;;;;;4936767;29;20035;-78
2022/04/18 21:55:48;;;;;;;2.55;1.50;;;15.30;45.40;;;;;;4938502;29;20027;-77
2022/04/18 21:58:13;;;;;;;2.40;1.40;;;15.30;46.10;;;;;;4942397;29;20388;-83
2022/04/18 22:00:39;;;;;;;1.70;1.33;;;15.30;45.20;;;;;;4939338;29;20040;-83
2022/04/18 22:03:06;;;;;;;1.92;1.35;;;15.30;45.80;;;;;;4938988;29;20044;-82
2022/04/18 22:05:34;;;;;;;2.72;1.45;;;15.40;45.50;;;;;;4938505;29;20476;-83
2022/04/18 22:08:00;;;;;;;2.83;1.50;;;15.20;45.90;;;;;;4939203;29;20046;-85
2022/04/18 22:10:26;;;;;;;3.25;2.17;;;15.00;46.50;;;;;;4941862;29;20063;-85
2022/04/18 22:12:52;;;;;;;2.58;1.73;;;14.90;47.30;;;;;;4931818;29;20032;-84
2022/04/18 22:15:18;;;;;;;3.92;2.30;;;14.70;48.20;;;;;;4938034;29;20126;-81
2022/04/18 22:17:44;;;;;;;5.88;2.47;;;14.60;48.40;;;;;;4936469;29;20110;-81
2022/04/18 22:25:39;;;;;;;4.25;2.60;;;14.50;47.60;;;;;;4935411;29;20034;-84
2022/04/18 22:28:15;;;;;;;4.70;2.88;;;14.60;48.00;;;;;;4935809;29;20040;-84
2022/04/18 22:30:41;;;;;;;4.82;2.30;;;14.50;48.30;;;;;;4911263;29;20036;-85
2022/04/18 22:33:32;;;;;;;7.43;2.60;;;14.40;48.20;;;;;;4936289;29;20046;-85
2022/04/18 22:35:59;;;;;;;4.70;2.67;;;14.30;48.70;;;;;;4926740;29;20039;-81
2022/04/18 22:43:36;;;;;;;3.63;2.70;;;13.90;50.00;;;;;;5586354;23;20062;-94
2022/04/18 22:46:02;;;;;;;4.43;2.85;;;13.80;50.60;;;;;;4927047;29;20461;-94
2022/04/18 22:48:31;;;;;;;7.28;2.60;;;13.80;50.50;;;;;;4918538;29;20096;-95
2022/04/18 22:50:57;;;;;;;6.03;3.03;;;14.00;49.70;;;;;;4919908;29;20035;-95
2022/04/18 22:53:30;;;;;;;4.35;2.58;;;13.80;50.30;;;;;;4919878;29;20040;-95
2022/04/18 22:55:56;;;;;;;3.28;2.08;;;13.90;49.60;;;;;;4920426;29;20032;-95
2022/04/18 22:58:22;;;;;;;3.25;2.50;;;14.00;49.10;;;;;;4903689;29;20520;-96
2022/04/18 23:00:50;;;;;;;3.70;2.90;;;13.90;50.00;;;;;;4903888;29;20127;-95
2022/04/18 23:03:23;;;;;;;4.57;2.47;;;13.60;50.60;;;;;;4902853;29;20139;-96
2022/04/18 23:06:01;;;;;;;5.53;2.60;;;13.70;50.10;;;;;;4904418;29;20096;-96
2022/04/18 23:08:35;;;;;;;4.35;2.35;;;13.90;49.50;;;;;;4920410;29;20532;-96
2022/04/18 23:11:01;;;;;;;4.00;3.03;;;14.00;49.10;;;;;;4921307;29;20040;-96
2022/04/18 23:13:35;;;;;;;3.83;2.47;;;13.90;49.70;;;;;;4919962;29;20048;-95
2022/04/18 23:16:11;;;;;;;7.38;3.65;;;14.00;49.20;;;;;;4921161;29;20044;-96
2022/04/18 23:18:43;;;;;;;4.35;3.13;;;13.90;49.60;;;;;;4904039;29;20048;-96
2022/04/18 23:21:09;;;;;;;4.00;2.72;;;13.90;50.00;;;;;;4909220;29;20507;-95
2022/04/18 23:23:35;;;;;;;4.68;3.38;;;14.00;48.90;;;;;;4902436;29;20047;-96
2022/04/18 23:26:01;;;;;;;4.00;2.70;;;14.00;49.40;;;;;;4903421;29;20036;-95
2022/04/18 23:28:27;;;;;;;4.68;2.83;;;13.90;49.60;;;;;;4919676;29;20107;-95
2022/04/18 23:30:59;;;;;;;2.83;2.25;;;13.90;49.40;;;;;;4902726;29;20040;-96
2022/04/18 23:33:25;;;;;;;3.90;2.47;;;14.10;48.90;;;;;;4919425;29;20047;-95
2022/04/18 23:35:52;;;;;;;4.00;2.50;;;14.20;48.80;;;;;;4902568;29;20091;-94
2022/04/18 23:38:27;;;;;;;5.47;2.63;;;14.20;48.80;;;;;;4919020;29;20041;-96
2022/04/18 23:43:37;;;;;;;2.75;2.05;;;14.20;48.40;;;;;;4917796;29;20532;-95
2022/04/18 23:46:03;;;;;;;5.85;2.60;;;14.30;48.40;;;;;;4900366;29;20036;-96
2022/04/18 23:48:29;;;;;;;4.85;2.88;;;14.30;48.40;;;;;;4918890;29;20075;-96
2022/04/18 23:51:01;;;;;;;4.75;3.22;;;14.30;48.20;;;;;;4920529;29;20051;-95
2022/04/18 23:53:32;;;;;;;5.28;2.42;;;14.30;47.80;;;;;;4903885;29;20040;-96
2022/04/18 23:55:59;;;;;;;3.63;2.70;;;14.20;48.20;;;;;;4920891;29;20036;-96
2022/04/18 23:58:31;;;;;;;3.38;2.38;;;14.20;48.10;;;;;;4891272;29;20104;-95
